HKZ weather

Edificio Zurich Heliport
Miguel Hidalgo, Guanajuato, Mexico

Public forecast

Using degrees Celsius for public forecast. Weather courtesy of forecast.io.

METAR (pilot weather report)

Closest report is Licenciado Benito Juarez International Airport, 7.4 nm (13.8 km) E. Retrieved 2019/06/16 08:44 UTC (0 seconds ago):

MMMX 160844Z 09004KT 6SM FEW080 17/12 A3027 NOSIG RMK SLP057 57014 963 8/030 HZY CI

TAF (pilot weather forecast)

Closest forecast is Licenciado Benito Juarez International Airport, 7.4 nm (13.8 km) E. Retrieved 2019/06/16 06:31 UTC (2 hours ago):

TAF MMMX 160426Z 1606/1712 06005KT 6SM HZ SCT020 BKN080 BKN200 TX26/1621Z TN15/1612Z FM160900 000000KT 6SM HZ SCT080 SCT200 FM161800 03010KT P6SM SCT020 BKN200 TEMPO 1623/1703 6SM -TSRA BKN020CB